createdAt,value
2024-05-09T00:00:45.550Z,1.90
2024-05-09T00:03:12.788Z,2.17
2024-05-09T00:05:44.182Z,2.15
2024-05-09T00:08:12.110Z,1.95
2024-05-09T00:10:40.719Z,2.40
2024-05-09T00:13:09.593Z,2.30
2024-05-09T00:15:37.231Z,1.90
2024-05-09T00:18:05.826Z,1.85
2024-05-09T00:20:38.626Z,1.95
2024-05-09T00:23:10.582Z,1.77
2024-05-09T00:25:38.411Z,1.98
2024-05-09T00:28:06.125Z,2.03
2024-05-09T00:30:35.946Z,1.65
2024-05-09T00:33:06.316Z,2.20
2024-05-09T00:35:34.795Z,2.30
2024-05-09T00:38:02.055Z,1.80
2024-05-09T00:40:41.500Z,2.00
2024-05-09T00:43:12.520Z,1.60
2024-05-09T00:45:40.517Z,1.65
2024-05-09T00:48:09.566Z,1.80
2024-05-09T00:50:41.332Z,1.92
2024-05-09T00:53:11.764Z,1.73
2024-05-09T00:55:40.095Z,1.60
2024-05-09T00:58:10.835Z,1.58
2024-05-09T01:00:40.409Z,1.50
2024-05-09T01:03:13.601Z,1.52
2024-05-09T01:05:42.584Z,1.40
2024-05-09T01:08:10.885Z,1.25
2024-05-09T01:10:38.342Z,1.55
2024-05-09T01:13:06.596Z,1.58
2024-05-09T01:15:35.160Z,1.48
2024-05-09T01:18:11.675Z,1.52
2024-05-09T01:20:42.987Z,1.42
2024-05-09T01:23:14.184Z,1.33
2024-05-09T01:25:43.014Z,1.80
2024-05-09T01:28:10.059Z,1.55
2024-05-09T01:30:37.972Z,1.77
2024-05-09T01:33:08.285Z,1.45
2024-05-09T01:35:37.125Z,1.70
2024-05-09T01:38:04.655Z,1.85
2024-05-09T01:40:37.488Z,1.50
2024-05-09T01:43:11.374Z,1.55
2024-05-09T01:45:40.228Z,1.63
2024-05-09T01:48:08.582Z,1.52
2024-05-09T01:50:40.135Z,1.40
2024-05-09T01:53:11.026Z,1.65
2024-05-09T01:55:38.784Z,1.70
2024-05-09T01:58:05.852Z,1.40
2024-05-09T02:00:39.179Z,1.67
2024-05-09T02:03:16.029Z,1.80
2024-05-09T02:05:47.061Z,1.85
2024-05-09T02:08:19.778Z,1.80
2024-05-09T02:10:48.654Z,1.65
2024-05-09T02:13:16.654Z,2.10
2024-05-09T02:15:44.212Z,1.80
2024-05-09T02:18:11.749Z,1.98
2024-05-09T02:20:41.484Z,1.88
2024-05-09T02:23:09.799Z,1.88
2024-05-09T02:25:36.850Z,1.67
2024-05-09T02:28:03.902Z,1.92
2024-05-09T02:30:39.254Z,1.92
2024-05-09T02:33:11.412Z,1.60
2024-05-09T02:35:40.556Z,1.55
2024-05-09T02:38:09.339Z,1.63
2024-05-09T02:40:38.756Z,1.83
2024-05-09T02:43:10.525Z,1.67
2024-05-09T02:45:39.575Z,1.52
2024-05-09T02:48:07.583Z,1.70
2024-05-09T02:50:38.984Z,1.70
2024-05-09T02:53:08.780Z,1.63
2024-05-09T02:55:36.506Z,1.98
2024-05-09T02:58:03.493Z,1.90
2024-05-09T03:00:38.214Z,2.00
2024-05-09T03:03:10.107Z,2.00
2024-05-09T03:05:40.405Z,1.88
2024-05-09T03:08:07.817Z,1.85
2024-05-09T03:10:37.121Z,2.05
2024-05-09T03:13:11.703Z,2.00
2024-05-09T03:15:38.863Z,1.80
2024-05-09T03:18:07.160Z,2.00
2024-05-09T03:20:36.017Z,2.20
2024-05-09T03:23:05.690Z,2.10
2024-05-09T03:25:33.475Z,2.25
2024-05-09T03:28:00.519Z,2.20
2024-05-09T03:30:38.591Z,2.03
2024-05-09T03:33:15.423Z,2.08
2024-05-09T03:35:46.384Z,2.10
2024-05-09T03:38:13.607Z,2.25
2024-05-09T03:40:49.516Z,2.33
2024-05-09T03:43:17.843Z,2.20
2024-05-09T03:45:46.735Z,2.25
2024-05-09T03:48:13.855Z,2.10
2024-05-09T03:50:41.379Z,2.17
2024-05-09T03:53:11.866Z,2.13
2024-05-09T03:55:39.115Z,1.92
2024-05-09T03:58:09.168Z,2.47
2024-05-09T04:00:39.299Z,2.10
2024-05-09T04:03:10.271Z,2.08
2024-05-09T04:05:44.447Z,2.47
2024-05-09T04:08:11.920Z,2.05
2024-05-09T04:10:39.086Z,2.00
2024-05-09T04:13:06.067Z,2.45
2024-05-09T04:15:33.100Z,2.40
2024-05-09T04:18:01.022Z,2.25
2024-05-09T04:20:36.617Z,1.98
2024-05-09T04:23:08.643Z,2.50
2024-05-09T04:25:36.358Z,2.30
2024-05-09T04:28:03.612Z,2.72
2024-05-09T04:30:37.255Z,2.47
2024-05-09T04:33:09.530Z,2.30
2024-05-09T04:35:38.959Z,3.35
2024-05-09T04:38:06.377Z,2.65
2024-05-09T04:40:36.116Z,2.42
2024-05-09T04:43:06.054Z,2.63
2024-05-09T04:45:33.471Z,2.33
2024-05-09T04:48:01.039Z,2.78
2024-05-09T04:50:36.000Z,2.58
2024-05-09T04:53:07.415Z,3.22
2024-05-09T04:55:35.800Z,2.97
2024-05-09T04:58:02.714Z,2.45
2024-05-09T05:00:35.928Z,3.05
2024-05-09T05:03:08.006Z,2.85
2024-05-09T05:05:38.130Z,2.90
2024-05-09T05:08:06.046Z,3.03
2024-05-09T05:10:36.309Z,2.65
2024-05-09T05:13:18.350Z,3.03
2024-05-09T05:15:56.763Z,3.33
2024-05-09T05:18:26.203Z,3.28
2024-05-09T05:20:54.688Z,2.80
2024-05-09T05:23:23.093Z,3.10
2024-05-09T05:25:53.093Z,3.20
2024-05-09T05:28:20.868Z,3.40
2024-05-09T05:30:47.922Z,3.05
2024-05-09T05:33:17.987Z,3.10
2024-05-09T05:35:45.446Z,3.33
2024-05-09T05:38:12.491Z,3.55
2024-05-09T05:40:40.719Z,3.45
2024-05-09T05:43:15.487Z,2.97
2024-05-09T05:48:09.916Z,2.72
2024-05-09T05:50:38.371Z,3.13
2024-05-09T05:53:08.111Z,4.07
2024-05-09T05:55:36.804Z,3.80
2024-05-09T05:58:03.904Z,3.55
2024-05-09T06:00:38.106Z,2.85
2024-05-09T06:03:08.189Z,2.78
2024-05-09T06:05:37.011Z,3.42
2024-05-09T06:08:04.669Z,3.50
2024-05-09T06:10:38.070Z,3.22
2024-05-09T06:13:08.834Z,2.90
2024-05-09T06:15:35.743Z,3.90
2024-05-09T06:18:06.613Z,2.88
2024-05-09T06:20:36.721Z,4.10
2024-05-09T06:23:06.686Z,3.60
2024-05-09T06:25:34.993Z,2.88
2024-05-09T06:28:02.398Z,3.38
2024-05-09T06:30:38.002Z,2.95
2024-05-09T06:33:09.098Z,2.70
2024-05-09T06:35:37.210Z,3.17
2024-05-09T06:38:04.705Z,2.83
2024-05-09T06:40:37.892Z,3.35
2024-05-09T06:43:18.474Z,2.97
2024-05-09T06:45:53.045Z,3.13
2024-05-09T06:48:21.481Z,2.58
2024-05-09T06:50:49.307Z,2.55
2024-05-09T06:53:18.016Z,2.88
2024-05-09T06:55:45.138Z,2.72
2024-05-09T06:58:12.184Z,3.08
2024-05-09T07:00:41.356Z,2.78
2024-05-09T07:03:16.668Z,2.95
2024-05-09T07:05:46.508Z,3.20
2024-05-09T07:08:14.556Z,3.30
2024-05-09T07:10:41.935Z,3.47
2024-05-09T07:13:14.786Z,2.50
2024-05-09T07:15:42.803Z,2.72
2024-05-09T07:18:15.357Z,2.65
2024-05-09T07:20:42.797Z,2.40
2024-05-09T07:23:10.693Z,2.78
2024-05-09T07:25:38.374Z,2.95
2024-05-09T07:28:05.666Z,3.30
2024-05-09T07:30:34.518Z,3.10
2024-05-09T07:33:03.564Z,2.88
2024-05-09T07:35:31.315Z,2.50
2024-05-09T07:37:58.664Z,2.80
2024-05-09T07:40:33.107Z,2.95
2024-05-09T07:43:07.820Z,2.67
2024-05-09T07:52:32.534Z,2.65
2024-05-09T07:55:55.502Z,4.03
2024-05-09T07:58:27.015Z,3.22
2024-05-09T08:00:54.639Z,2.78
2024-05-09T08:03:22.490Z,2.67
2024-05-09T08:05:49.602Z,2.67
2024-05-09T08:08:16.681Z,3.33
2024-05-09T08:10:43.822Z,3.20
2024-05-09T08:13:10.942Z,2.88
2024-05-09T08:15:38.147Z,2.58
2024-05-09T08:18:09.735Z,2.30
2024-05-09T08:20:41.681Z,2.42
2024-05-09T08:23:08.874Z,2.25
2024-05-09T08:25:35.829Z,2.60
2024-05-09T08:28:05.209Z,2.30
2024-05-09T08:30:36.908Z,2.45
2024-05-09T08:33:06.394Z,2.47
2024-05-09T08:35:34.393Z,1.80
2024-05-09T08:38:03.393Z,1.83
2024-05-09T08:40:35.583Z,1.40
2024-05-09T08:43:09.496Z,1.48
2024-05-09T08:45:38.954Z,1.77
2024-05-09T08:48:08.846Z,1.55
2024-05-09T08:50:40.581Z,1.77
2024-05-09T08:53:08.756Z,2.60
2024-05-09T08:55:40.287Z,1.70
2024-05-09T08:58:16.088Z,1.90
2024-05-09T09:00:45.292Z,2.25
2024-05-09T09:03:18.103Z,2.80
2024-05-09T09:06:20.253Z,2.17
2024-05-09T09:08:48.700Z,2.25
2024-05-09T09:11:15.642Z,2.45
2024-05-09T09:13:42.605Z,2.28
2024-05-09T09:16:09.545Z,2.50
2024-05-09T09:18:36.751Z,2.17
2024-05-09T09:21:03.893Z,3.00
2024-05-09T09:23:30.913Z,2.60
2024-05-09T09:26:01.142Z,2.50
2024-05-09T09:28:28.228Z,2.63
2024-05-09T09:31:02.911Z,2.42
2024-05-09T09:33:31.502Z,2.35
2024-05-09T09:35:58.706Z,2.35
2024-05-09T09:38:30.923Z,2.33
2024-05-09T09:41:00.022Z,2.15
2024-05-09T09:43:27.798Z,2.15
2024-05-09T09:45:59.719Z,2.65
2024-05-09T09:48:27.324Z,2.55
2024-05-09T09:50:55.430Z,3.30
2024-05-09T09:53:23.922Z,2.90
2024-05-09T09:55:53.128Z,2.25
2024-05-09T09:58:20.867Z,2.42
2024-05-09T10:00:48.136Z,2.55
2024-05-09T10:03:15.219Z,3.10
2024-05-09T10:05:45.352Z,2.33
2024-05-09T10:08:15.834Z,2.67
2024-05-09T10:10:47.572Z,2.25
2024-05-09T10:13:15.531Z,2.40
2024-05-09T10:15:53.983Z,2.55
2024-05-09T10:18:27.111Z,2.67
2024-05-09T10:20:56.400Z,2.60
2024-05-09T10:23:32.194Z,2.22
2024-05-09T10:26:05.185Z,2.67
2024-05-09T10:28:35.684Z,3.20
2024-05-09T10:31:15.515Z,3.60
2024-05-09T10:33:51.225Z,2.33
2024-05-09T10:36:24.588Z,2.97
2024-05-09T10:38:53.977Z,2.35
2024-05-09T10:41:22.678Z,2.08
2024-05-09T10:43:50.855Z,2.17
2024-05-09T10:46:21.496Z,2.10
2024-05-09T10:48:49.057Z,2.10
2024-05-09T10:51:19.159Z,2.45
2024-05-09T10:53:48.018Z,2.60
2024-05-09T10:56:15.823Z,2.30
2024-05-09T10:58:43.032Z,2.47
2024-05-09T11:01:10.887Z,2.40
2024-05-09T11:03:39.032Z,2.40
2024-05-09T11:06:06.943Z,2.38
2024-05-09T11:08:35.215Z,2.15
2024-05-09T11:11:06.741Z,2.10
2024-05-09T11:13:36.172Z,1.83
2024-05-09T11:16:04.881Z,2.10
2024-05-09T11:18:36.544Z,3.40
2024-05-09T11:21:13.466Z,2.30
2024-05-09T11:23:41.046Z,1.98
2024-05-09T11:26:09.067Z,2.65
2024-05-09T11:28:36.185Z,2.75
2024-05-09T11:31:08.716Z,2.22
2024-05-09T11:33:42.067Z,2.08
2024-05-09T11:36:09.589Z,1.98
2024-05-09T11:38:36.580Z,2.15
2024-05-09T11:41:05.118Z,1.85
2024-05-09T11:43:32.632Z,1.73
2024-05-09T11:46:00.354Z,1.63
2024-05-09T11:48:27.884Z,1.45
2024-05-09T11:50:55.582Z,1.88
2024-05-09T11:53:22.682Z,2.20
2024-05-09T11:55:49.784Z,3.05
2024-05-09T11:58:18.150Z,2.15
2024-05-09T12:00:46.568Z,2.13
2024-05-09T12:03:13.985Z,2.40
2024-05-09T12:05:41.347Z,2.35
2024-05-09T12:08:08.400Z,1.90
2024-05-09T12:10:36.709Z,1.73
2024-05-09T12:13:06.291Z,2.03
2024-05-09T12:15:37.750Z,2.10
2024-05-09T12:18:09.096Z,1.75
2024-05-09T12:20:39.114Z,1.65
2024-05-09T12:23:09.907Z,2.03
2024-05-09T12:25:40.565Z,2.03
2024-05-09T12:28:08.672Z,2.60
2024-05-09T12:30:40.049Z,2.60
2024-05-09T12:33:09.871Z,2.15
2024-05-09T12:35:37.627Z,2.22
2024-05-09T12:38:04.893Z,2.35
2024-05-09T12:40:36.745Z,1.98
2024-05-09T12:43:07.915Z,1.58
2024-05-09T12:45:35.832Z,1.48
2024-05-09T12:48:04.587Z,1.85
2024-05-09T12:50:33.902Z,1.60
2024-05-09T12:53:03.188Z,1.90
2024-05-09T12:55:37.731Z,1.77
2024-05-09T12:58:12.091Z,1.67
2024-05-09T13:00:39.446Z,1.60
2024-05-09T13:03:07.051Z,2.05
2024-05-09T13:05:34.168Z,2.22
2024-05-09T13:08:01.961Z,1.55
2024-05-09T13:10:32.453Z,1.60
2024-05-09T13:13:01.439Z,1.10
2024-05-09T13:15:30.770Z,1.83
2024-05-09T13:18:01.621Z,1.13
2024-05-09T13:20:33.718Z,1.65
2024-05-09T13:23:04.890Z,1.50
2024-05-09T13:25:34.214Z,1.40
2024-05-09T13:28:01.300Z,1.70
2024-05-09T13:30:37.325Z,1.50
2024-05-09T13:33:07.646Z,1.90
2024-05-09T13:35:35.819Z,1.40
2024-05-09T13:38:04.495Z,1.70
2024-05-09T13:40:34.825Z,1.95
2024-05-09T13:43:06.676Z,1.83
2024-05-09T13:45:35.120Z,1.60
2024-05-09T13:48:03.709Z,1.48
2024-05-09T13:50:34.980Z,1.45
2024-05-09T13:53:06.423Z,1.50
2024-05-09T13:55:35.057Z,1.40
2024-05-09T13:58:02.562Z,1.13
2024-05-09T14:00:42.609Z,1.20
2024-05-09T14:05:42.297Z,1.23
2024-05-09T14:08:09.552Z,1.33
2024-05-09T14:10:43.204Z,1.08
2024-05-09T14:13:10.441Z,1.33
2024-05-09T14:15:37.723Z,1.10
2024-05-09T14:18:05.395Z,2.10
2024-05-09T14:20:32.821Z,1.38
2024-05-09T14:23:00.965Z,1.25
2024-05-09T14:25:30.413Z,1.20
2024-05-09T14:27:58.146Z,1.20
2024-05-09T14:30:34.173Z,1.20
2024-05-09T14:33:05.862Z,1.10
2024-05-09T14:35:33.733Z,1.08
2024-05-09T14:38:00.789Z,1.15
2024-05-09T14:40:37.267Z,0.93
2024-05-09T14:43:10.792Z,0.93
2024-05-09T14:45:37.962Z,1.30
2024-05-09T14:48:06.369Z,1.25
2024-05-09T14:50:37.392Z,1.00
2024-05-09T14:53:07.814Z,1.20
2024-05-09T14:55:37.226Z,1.10
2024-05-09T14:58:10.033Z,1.10
2024-05-09T15:00:44.641Z,1.10
2024-05-09T15:03:15.302Z,1.10
2024-05-09T15:05:42.339Z,0.70
2024-05-09T15:08:09.457Z,1.25
2024-05-09T15:10:37.873Z,0.85
2024-05-09T15:13:07.320Z,0.90
2024-05-09T15:15:35.996Z,0.90
2024-05-09T15:18:05.155Z,0.70
2024-05-09T15:20:36.083Z,1.23
2024-05-09T15:23:06.207Z,1.00
2024-05-09T15:25:34.398Z,1.17
2024-05-09T15:28:01.599Z,1.27
2024-05-09T15:30:32.065Z,0.90
2024-05-09T15:33:03.840Z,0.82
2024-05-09T15:35:31.436Z,1.00
2024-05-09T15:37:58.500Z,1.10
2024-05-09T15:40:35.541Z,1.02
2024-05-09T15:43:07.616Z,0.90
2024-05-09T15:45:35.424Z,0.90
2024-05-09T15:48:03.431Z,1.52
2024-05-09T15:50:37.572Z,1.23
2024-05-09T15:53:09.579Z,1.17
2024-05-09T15:55:37.592Z,1.30
2024-05-09T15:58:05.504Z,1.13
2024-05-09T16:00:37.984Z,1.30
2024-05-09T16:03:13.359Z,1.42
2024-05-09T16:05:43.642Z,1.40
2024-05-09T16:08:12.343Z,1.52
2024-05-09T16:10:45.853Z,1.85
2024-05-09T16:15:42.540Z,2.28
2024-05-09T16:18:09.664Z,3.83
2024-05-09T16:20:40.360Z,6.53
2024-05-09T16:23:09.838Z,3.00
2024-05-09T16:25:37.217Z,3.97
2024-05-09T16:28:08.778Z,5.00
2024-05-09T16:30:40.665Z,2.63
2024-05-09T16:33:08.716Z,3.20
2024-05-09T16:35:37.067Z,2.20
2024-05-09T16:38:04.428Z,1.70
2024-05-09T16:40:38.012Z,1.40
2024-05-09T16:43:08.947Z,2.00
2024-05-09T16:45:37.035Z,1.50
2024-05-09T16:48:04.767Z,1.60
2024-05-09T16:50:34.626Z,1.48
2024-05-09T16:53:04.734Z,1.40
2024-05-09T16:55:32.487Z,1.63
2024-05-09T16:57:59.582Z,1.40
2024-05-09T17:00:36.392Z,1.30
2024-05-09T17:03:10.318Z,2.05
2024-05-09T17:05:38.714Z,2.28
2024-05-09T17:08:06.516Z,1.77
2024-05-09T17:10:35.198Z,1.90
2024-05-09T17:13:04.564Z,1.75
2024-05-09T17:15:33.272Z,2.00
2024-05-09T17:18:01.423Z,1.83
2024-05-09T17:20:33.464Z,1.85
2024-05-09T17:23:05.076Z,1.55
2024-05-09T17:25:32.874Z,1.90
2024-05-09T17:28:06.081Z,1.15
2024-05-09T17:30:37.007Z,1.50
2024-05-09T17:33:08.002Z,1.77
2024-05-09T17:35:36.406Z,1.65
2024-05-09T17:38:04.742Z,1.75
2024-05-09T17:40:35.530Z,1.83
2024-05-09T17:43:05.392Z,2.10
2024-05-09T17:45:33.227Z,1.65
2024-05-09T17:48:00.986Z,1.83
2024-05-09T17:50:35.034Z,1.95
2024-05-09T17:53:07.023Z,1.95
2024-05-09T17:55:34.414Z,2.33
2024-05-09T17:58:01.978Z,2.55
2024-05-09T18:00:37.276Z,2.50
2024-05-09T18:03:08.758Z,3.03
2024-05-09T18:05:36.949Z,2.80
2024-05-09T18:08:08.333Z,2.33
2024-05-09T18:10:39.975Z,1.88
2024-05-09T18:13:09.042Z,1.90
2024-05-09T18:15:36.549Z,2.13
2024-05-09T18:18:04.617Z,2.13
2024-05-09T18:20:40.489Z,1.73
2024-05-09T18:23:16.926Z,2.03
2024-05-09T18:25:45.628Z,2.50
2024-05-09T18:28:13.014Z,1.95
2024-05-09T18:30:41.047Z,2.47
2024-05-09T18:33:11.241Z,2.78
2024-05-09T18:35:38.902Z,2.78
2024-05-09T18:38:06.067Z,2.63
2024-05-09T18:40:36.368Z,2.47
2024-05-09T18:43:07.618Z,2.25
2024-05-09T18:45:37.518Z,2.55
2024-05-09T18:48:06.347Z,1.85
2024-05-09T18:50:37.711Z,2.97
2024-05-09T18:53:07.419Z,2.00
2024-05-09T18:55:34.797Z,2.53
2024-05-09T18:58:01.828Z,2.08
2024-05-09T19:00:35.410Z,2.40
2024-05-09T19:03:09.447Z,1.80
2024-05-09T19:05:39.030Z,1.67
2024-05-09T19:08:07.350Z,2.05
2024-05-09T19:10:35.777Z,1.90
2024-05-09T19:13:08.466Z,1.85
2024-05-09T19:15:42.876Z,2.08
2024-05-09T19:18:13.259Z,1.60
2024-05-09T19:20:41.234Z,1.63
2024-05-09T19:23:08.241Z,1.90
2024-05-09T19:25:36.162Z,2.08
2024-05-09T19:28:04.549Z,1.88
2024-05-09T19:30:38.721Z,1.77
2024-05-09T19:33:09.859Z,2.65
2024-05-09T19:35:37.884Z,2.08
2024-05-09T19:38:05.246Z,2.38
2024-05-09T19:40:34.082Z,2.53
2024-05-09T19:43:03.146Z,2.00
2024-05-09T19:45:32.213Z,1.90
2024-05-09T19:47:59.443Z,1.98
2024-05-09T19:50:32.877Z,1.77
2024-05-09T19:53:08.330Z,1.77
2024-05-09T19:55:35.458Z,2.15
2024-05-09T19:58:05.293Z,1.70
2024-05-09T20:00:36.926Z,1.73
2024-05-09T20:03:06.702Z,3.85
2024-05-09T20:05:34.302Z,3.60
2024-05-09T20:08:01.370Z,4.22
2024-05-09T20:10:32.559Z,4.28
2024-05-09T20:13:02.138Z,4.40
2024-05-09T20:15:29.363Z,4.90
2024-05-09T20:17:56.901Z,5.35
2024-05-09T20:20:32.882Z,4.55
2024-05-09T20:23:05.944Z,3.88
2024-05-09T20:25:32.993Z,3.45
2024-05-09T20:28:00.128Z,3.13
2024-05-09T20:30:32.129Z,2.60
2024-05-09T20:33:03.544Z,2.70
2024-05-09T20:35:32.412Z,2.53
2024-05-09T20:38:00.788Z,2.55
2024-05-09T20:40:32.715Z,2.50
2024-05-09T20:43:03.448Z,2.75
2024-05-09T20:45:30.434Z,2.60
2024-05-09T20:47:57.860Z,2.60
2024-05-09T20:50:35.570Z,2.90
2024-05-09T20:53:09.151Z,2.33
2024-05-09T20:55:36.612Z,2.83
2024-05-09T20:58:03.648Z,2.38
2024-05-09T21:00:38.856Z,3.10
2024-05-09T21:03:09.615Z,3.00
2024-05-09T21:05:36.876Z,2.92
2024-05-09T21:08:04.517Z,2.97
2024-05-09T21:10:33.439Z,3.10
2024-05-09T21:13:02.765Z,2.70
2024-05-09T21:15:30.563Z,4.63
2024-05-09T21:17:57.677Z,4.78
2024-05-09T21:20:30.935Z,4.93
2024-05-09T21:22:59.520Z,3.63
2024-05-09T21:25:26.540Z,3.45
2024-05-09T21:27:53.687Z,3.58
2024-05-09T21:30:31.954Z,3.22
2024-05-09T21:33:08.806Z,2.88
2024-05-09T21:35:36.459Z,3.22
2024-05-09T21:38:04.703Z,2.70
2024-05-09T21:40:35.075Z,3.50
2024-05-09T21:43:04.822Z,4.03
2024-05-09T21:45:32.184Z,3.33
2024-05-09T21:47:59.560Z,2.67
2024-05-09T21:50:35.401Z,3.20
2024-05-09T21:53:07.003Z,3.05
2024-05-09T21:55:34.282Z,2.80
2024-05-09T21:58:01.573Z,2.85
2024-05-09T22:00:35.466Z,3.15
2024-05-09T22:03:09.934Z,3.15
2024-05-09T22:05:41.749Z,2.80
2024-05-09T22:08:09.005Z,2.90
2024-05-09T22:10:36.965Z,2.88
2024-05-09T22:13:08.530Z,2.80
2024-05-09T22:15:38.759Z,3.22
2024-05-09T22:18:08.297Z,3.30
2024-05-09T22:20:38.894Z,3.72
2024-05-09T22:23:08.485Z,3.25
2024-05-09T22:25:36.392Z,3.30
2024-05-09T22:28:03.828Z,3.72
2024-05-09T22:30:36.085Z,4.20
2024-05-09T22:33:11.201Z,3.70
2024-05-09T22:35:40.421Z,3.30
2024-05-09T22:38:07.794Z,3.72
2024-05-09T22:40:45.430Z,3.53
2024-05-09T22:43:24.198Z,3.65
2024-05-09T22:45:54.251Z,2.97
2024-05-09T22:48:21.902Z,3.28
2024-05-09T22:50:49.051Z,3.28
2024-05-09T22:53:16.013Z,3.50
2024-05-09T22:55:42.965Z,3.88
2024-05-09T22:58:10.046Z,3.55
2024-05-09T23:00:37.215Z,3.67
2024-05-09T23:03:04.334Z,3.50
2024-05-09T23:05:32.480Z,3.63
2024-05-09T23:08:01.859Z,3.63
2024-05-09T23:10:35.548Z,3.40
2024-05-09T23:13:05.883Z,5.05
2024-05-09T23:15:33.061Z,4.13
2024-05-09T23:18:00.164Z,4.20
2024-05-09T23:20:36.037Z,4.00
2024-05-09T23:23:07.254Z,4.15
2024-05-09T23:25:34.599Z,4.32
2024-05-09T23:28:01.765Z,4.65
2024-05-09T23:30:36.515Z,4.30
2024-05-09T23:33:07.995Z,4.20
2024-05-09T23:35:35.267Z,4.15
2024-05-09T23:38:02.246Z,4.65
2024-05-09T23:42:59.153Z,4.63
2024-05-09T23:45:26.138Z,4.68
2024-05-09T23:47:55.024Z,5.43
2024-05-09T23:50:30.235Z,5.40
2024-05-09T23:53:00.858Z,4.75
2024-05-09T23:55:28.390Z,5.35
2024-05-09T23:57:55.453Z,5.38
